createdAt,value
2024-01-15T00:00:07.638Z,54.60
2024-01-15T00:02:33.042Z,54.37
2024-01-15T00:04:55.336Z,62.00
2024-01-15T00:07:17.758Z,61.70
2024-01-15T00:09:41.574Z,53.30
2024-01-15T00:12:04.080Z,50.07
2024-01-15T00:14:26.477Z,59.97
2024-01-15T00:16:50.545Z,60.10
2024-01-15T00:19:12.994Z,62.17
2024-01-15T00:21:35.369Z,52.80
2024-01-15T00:23:57.655Z,60.23
2024-01-15T00:26:20.243Z,56.57
2024-01-15T00:28:42.526Z,56.20
2024-01-15T00:31:05.103Z,52.70
2024-01-15T00:33:27.734Z,58.80
2024-01-15T00:35:50.117Z,59.67
2024-01-15T00:38:12.348Z,50.37
2024-01-15T00:40:34.618Z,58.03
2024-01-15T00:42:56.883Z,62.00
2024-01-15T00:45:19.157Z,56.80
2024-01-15T00:47:41.531Z,52.97
2024-01-15T00:50:04.380Z,53.00
2024-01-15T00:52:26.760Z,51.50
2024-01-15T00:54:49.116Z,62.03
2024-01-15T00:57:11.492Z,60.13
2024-01-15T00:59:33.868Z,56.27
2024-01-15T01:01:56.159Z,61.00
2024-01-15T01:04:18.902Z,58.97
2024-01-15T01:06:41.714Z,59.23
2024-01-15T01:09:04.445Z,53.97
2024-01-15T01:11:26.874Z,56.10
2024-01-15T01:13:49.372Z,60.27
2024-01-15T01:16:11.900Z,56.50
2024-01-15T01:18:34.376Z,61.07
2024-01-15T01:20:56.789Z,53.87
2024-01-15T01:23:19.151Z,60.67
2024-01-15T01:25:41.448Z,46.83
2024-01-15T01:28:03.950Z,54.30
2024-01-15T01:30:26.607Z,53.83
2024-01-15T01:32:48.996Z,52.67
2024-01-15T01:35:11.308Z,59.07
2024-01-15T01:37:35.370Z,55.07
2024-01-15T01:39:57.716Z,54.43
2024-01-15T01:42:19.992Z,56.20
2024-01-15T01:44:42.499Z,59.20
2024-01-15T01:47:05.850Z,55.10
2024-01-15T01:49:29.332Z,60.13
2024-01-15T01:51:51.981Z,57.40
2024-01-15T01:54:15.173Z,61.93
2024-01-15T01:56:37.943Z,52.87
2024-01-15T01:59:00.355Z,51.13
2024-01-15T02:01:24.968Z,61.77
2024-01-15T02:03:47.523Z,58.70
2024-01-15T02:06:10.024Z,52.80
2024-01-15T02:30:13.905Z,57.90
2024-01-15T02:32:36.551Z,53.27
2024-01-15T02:34:59.288Z,53.53
2024-01-15T02:37:21.934Z,56.00
2024-01-15T02:39:44.312Z,58.53
2024-01-15T02:42:06.787Z,48.97
2024-01-15T02:44:29.292Z,56.77
2024-01-15T02:46:51.666Z,45.73
2024-01-15T02:49:14.055Z,49.03
2024-01-15T02:51:36.518Z,55.13
2024-01-15T02:53:58.881Z,47.43
2024-01-15T02:56:21.172Z,59.10
2024-01-15T02:58:43.513Z,62.83
2024-01-15T03:01:06.245Z,59.53
2024-01-15T03:03:28.897Z,54.97
2024-01-15T03:05:51.458Z,58.80
2024-01-15T03:08:15.345Z,57.50
2024-01-15T03:10:37.620Z,48.67
2024-01-15T03:12:59.905Z,58.70
2024-01-15T03:15:22.376Z,60.43
2024-01-15T03:17:44.939Z,62.93
2024-01-15T03:20:07.572Z,60.07
2024-01-15T03:22:29.846Z,59.23
2024-01-15T03:24:52.890Z,65.33
2024-01-15T03:27:15.307Z,58.00
2024-01-15T03:29:37.596Z,61.37
2024-01-15T03:31:59.891Z,62.37
2024-01-15T03:34:22.459Z,56.00
2024-01-15T03:36:44.964Z,54.23
2024-01-15T03:39:07.380Z,51.10
2024-01-15T03:41:29.823Z,54.13
2024-01-15T03:43:52.106Z,49.57
2024-01-15T03:46:14.423Z,47.87
2024-01-15T03:48:36.848Z,51.90
2024-01-15T03:50:59.307Z,56.23
2024-01-15T03:53:22.018Z,48.87
2024-01-15T03:55:44.513Z,48.10
2024-01-15T03:58:07.059Z,52.10
2024-01-15T04:00:29.346Z,49.83
2024-01-15T04:02:51.706Z,51.13
2024-01-15T04:05:14.091Z,52.03
2024-01-15T04:07:36.561Z,50.97
2024-01-15T04:09:58.863Z,47.77
2024-01-15T04:12:21.240Z,50.33
2024-01-15T04:14:43.604Z,52.40
2024-01-15T04:17:05.951Z,52.33
2024-01-15T04:19:28.494Z,55.40
2024-01-15T04:21:50.899Z,48.60
2024-01-15T04:24:13.318Z,54.70
2024-01-15T04:26:35.717Z,55.13
2024-01-15T04:28:58.838Z,43.30
2024-01-15T04:31:30.708Z,48.57
2024-01-15T04:33:53.345Z,48.17
2024-01-15T04:36:15.764Z,54.43
2024-01-15T04:38:38.191Z,43.87
2024-01-15T04:41:00.498Z,51.27
2024-01-15T04:43:22.844Z,43.40
2024-01-15T04:45:45.440Z,46.03
2024-01-15T04:48:08.166Z,50.83
2024-01-15T04:50:30.761Z,50.83
2024-01-15T04:52:54.094Z,40.67
2024-01-15T04:55:16.533Z,48.00
2024-01-15T04:57:38.904Z,48.63
2024-01-15T05:00:01.296Z,44.60
2024-01-15T05:02:23.736Z,48.40
2024-01-15T05:04:46.194Z,49.80
2024-01-15T05:07:09.617Z,49.40
2024-01-15T05:09:33.235Z,51.77
2024-01-15T05:11:55.846Z,48.03
2024-01-15T05:14:18.368Z,52.27
2024-01-15T05:16:41.235Z,52.00
2024-01-15T05:19:03.849Z,49.43
2024-01-15T05:21:26.355Z,48.50
2024-01-15T05:23:48.729Z,46.67
2024-01-15T05:26:11.325Z,41.00
2024-01-15T05:28:33.606Z,43.40
2024-01-15T05:30:56.845Z,45.77
2024-01-15T05:33:19.316Z,43.53
2024-01-15T05:35:41.740Z,39.73
2024-01-15T05:38:04.197Z,44.43
2024-01-15T05:40:27.353Z,49.17
2024-01-15T05:42:50.244Z,43.33
2024-01-15T05:45:12.648Z,40.30
2024-01-15T05:47:35.063Z,39.20
2024-01-15T05:49:58.178Z,43.87
2024-01-15T05:52:21.965Z,43.83
2024-01-15T05:54:44.425Z,40.07
2024-01-15T05:57:07.079Z,45.37
2024-01-15T05:59:32.938Z,44.30
2024-01-15T06:01:55.360Z,43.47
2024-01-15T06:04:17.937Z,40.87
2024-01-15T06:06:40.430Z,41.63
2024-01-15T06:09:06.437Z,47.33
2024-01-15T06:11:32.603Z,48.20
2024-01-15T06:13:54.842Z,47.77
2024-01-15T06:16:17.931Z,48.33
2024-01-15T06:18:40.732Z,38.90
2024-01-15T06:21:03.136Z,48.93
2024-01-15T06:23:25.419Z,42.63
2024-01-15T06:25:47.764Z,46.60
2024-01-15T06:28:10.790Z,48.47
2024-01-15T06:30:33.205Z,47.47
2024-01-15T06:32:55.694Z,53.63
2024-01-15T06:35:19.721Z,49.27
2024-01-15T06:37:44.138Z,51.73
2024-01-15T06:40:09.915Z,49.60
2024-01-15T06:42:32.418Z,48.83
2024-01-15T06:44:54.858Z,54.50
2024-01-15T06:47:18.496Z,47.97
2024-01-15T06:49:41.177Z,48.57
2024-01-15T06:52:03.764Z,49.17
2024-01-15T06:54:27.794Z,49.97
2024-01-15T06:56:50.401Z,52.93
2024-01-15T06:59:14.615Z,56.27
2024-01-15T07:01:38.156Z,44.13
2024-01-15T07:04:00.711Z,49.90
2024-01-15T07:06:23.174Z,48.30
2024-01-15T07:08:45.799Z,54.37
2024-01-15T07:11:08.469Z,54.37
2024-01-15T07:13:30.862Z,56.30
2024-01-15T07:15:53.533Z,51.13
2024-01-15T07:18:16.041Z,54.53
2024-01-15T07:20:38.408Z,55.10
2024-01-15T07:23:00.761Z,44.50
2024-01-15T07:25:23.094Z,54.00
2024-01-15T07:27:46.174Z,50.47
2024-01-15T07:30:10.690Z,47.67
2024-01-15T07:32:33.134Z,53.97
2024-01-15T07:34:55.543Z,47.13
2024-01-15T07:37:18.199Z,48.33
2024-01-15T07:39:41.386Z,46.63
2024-01-15T07:42:04.586Z,42.47
2024-01-15T07:44:26.930Z,44.47
2024-01-15T07:46:49.297Z,40.67
2024-01-15T07:49:11.721Z,48.70
2024-01-15T07:51:34.540Z,51.90
2024-01-15T07:53:57.361Z,45.60
2024-01-15T07:56:19.707Z,44.83
2024-01-15T07:58:42.111Z,44.30
2024-01-15T08:01:04.576Z,45.63
2024-01-15T08:03:27.124Z,38.57
2024-01-15T08:05:53.802Z,41.67
2024-01-15T08:08:16.128Z,43.20
2024-01-15T08:10:38.416Z,35.97
2024-01-15T08:13:00.837Z,38.47
2024-01-15T08:15:23.277Z,32.13
2024-01-15T08:17:45.681Z,29.87
2024-01-15T08:20:08.529Z,28.60
2024-01-15T08:22:32.304Z,34.77
2024-01-15T08:24:56.437Z,31.43
2024-01-15T08:27:18.938Z,27.60
2024-01-15T08:29:41.393Z,23.87
2024-01-15T08:32:04.006Z,27.17
2024-01-15T08:34:27.993Z,23.83
2024-01-15T08:36:51.529Z,27.87
2024-01-15T08:39:14.011Z,27.03
2024-01-15T08:41:36.462Z,31.60
2024-01-15T08:43:58.812Z,24.83
2024-01-15T08:46:21.170Z,22.87
2024-01-15T08:48:43.627Z,22.07
2024-01-15T08:51:06.131Z,23.23
2024-01-15T08:53:29.076Z,26.23
2024-01-15T08:55:51.900Z,25.03
2024-01-15T08:58:14.405Z,25.07
2024-01-15T09:00:36.947Z,24.83
2024-01-15T09:02:59.312Z,26.90
2024-01-15T09:05:21.877Z,29.90
2024-01-15T09:07:44.348Z,29.23
2024-01-15T09:10:07.842Z,23.33
2024-01-15T09:12:30.550Z,29.70
2024-01-15T09:14:54.885Z,25.70
2024-01-15T09:17:17.196Z,26.03
2024-01-15T09:19:43.090Z,30.77
2024-01-15T09:22:06.415Z,28.40
2024-01-15T09:24:29.533Z,27.57
2024-01-15T09:26:52.720Z,30.53
2024-01-15T09:29:20.858Z,32.57
2024-01-15T09:31:43.707Z,31.90
2024-01-15T09:34:06.181Z,30.57
2024-01-15T09:36:28.717Z,27.53
2024-01-15T09:38:51.255Z,28.20
2024-01-15T09:41:16.246Z,31.97
2024-01-15T09:43:39.238Z,29.23
2024-01-15T09:46:01.930Z,32.77
2024-01-15T09:48:24.517Z,27.43
2024-01-15T09:50:47.561Z,25.03
2024-01-15T09:53:11.022Z,26.43
2024-01-15T09:55:34.215Z,24.80
2024-01-15T09:57:57.561Z,27.90
2024-01-15T10:00:20.342Z,17.83
2024-01-15T10:02:43.153Z,22.40
2024-01-15T10:05:06.078Z,19.17
2024-01-15T10:07:29.612Z,20.47
2024-01-15T10:09:52.236Z,19.97
2024-01-15T10:12:20.233Z,19.50
2024-01-15T10:14:44.689Z,15.33
2024-01-15T10:17:19.366Z,21.27
2024-01-15T10:19:45.579Z,17.57
2024-01-15T10:22:22.026Z,17.13
2024-01-15T10:24:44.423Z,15.53
2024-01-15T10:27:08.089Z,18.03
2024-01-15T10:29:30.677Z,18.77
2024-01-15T10:31:53.242Z,15.90
2024-01-15T10:34:16.906Z,16.63
2024-01-15T10:36:41.231Z,15.73
2024-01-15T10:39:04.255Z,16.10
2024-01-15T10:41:26.880Z,21.70
2024-01-15T10:43:49.344Z,18.77
2024-01-15T10:46:11.969Z,15.77
2024-01-15T10:48:36.774Z,17.30
2024-01-15T10:50:59.958Z,18.63
2024-01-15T10:53:26.043Z,18.97
2024-01-15T10:55:49.835Z,17.30
2024-01-15T10:58:12.306Z,19.40
2024-01-15T11:00:35.843Z,18.43
2024-01-15T11:02:58.871Z,19.33
2024-01-15T11:05:23.291Z,17.70
2024-01-15T11:07:46.091Z,17.60
2024-01-15T11:10:11.353Z,18.40
2024-01-15T11:12:33.965Z,16.67
2024-01-15T11:15:05.581Z,15.53
2024-01-15T11:17:28.493Z,16.07
2024-01-15T11:19:52.621Z,18.77
2024-01-15T11:22:36.701Z,15.83
2024-01-15T11:25:14.817Z,17.23
2024-01-15T11:27:43.772Z,16.93
2024-01-15T11:30:06.633Z,16.20
2024-01-15T11:32:35.365Z,16.80
2024-01-15T11:35:02.556Z,18.67
2024-01-15T11:37:25.184Z,18.07
2024-01-15T11:39:50.732Z,16.03
2024-01-15T11:42:13.915Z,15.37
2024-01-15T11:44:36.234Z,17.57
2024-01-15T11:46:58.589Z,17.13
2024-01-15T11:49:29.150Z,12.77
2024-01-15T11:51:52.891Z,18.83
2024-01-15T11:54:16.266Z,15.37
2024-01-15T11:56:38.627Z,19.93
2024-01-15T11:59:02.498Z,13.10
2024-01-15T12:01:26.776Z,17.97
2024-01-15T12:03:49.411Z,18.03
2024-01-15T12:06:12.890Z,14.47
2024-01-15T12:08:35.883Z,13.53
2024-01-15T12:10:58.540Z,13.30
2024-01-15T12:13:22.113Z,11.00
2024-01-15T12:15:45.233Z,12.23
2024-01-15T12:18:08.241Z,13.03
2024-01-15T12:20:31.356Z,12.97
2024-01-15T12:23:01.160Z,14.00
2024-01-15T12:25:25.769Z,13.43
2024-01-15T12:27:48.270Z,14.93
2024-01-15T12:30:12.974Z,14.97
2024-01-15T12:32:36.763Z,15.10
2024-01-15T12:35:00.117Z,13.47
2024-01-15T12:37:23.248Z,14.47
2024-01-15T12:39:45.849Z,15.70
2024-01-15T12:42:08.183Z,11.97
2024-01-15T12:44:30.441Z,11.90
2024-01-15T12:46:52.885Z,14.27
2024-01-15T12:49:15.452Z,13.00
2024-01-15T12:51:37.772Z,13.80
2024-01-15T12:54:00.204Z,14.13
2024-01-15T12:56:22.514Z,9.60
2024-01-15T12:58:45.030Z,10.90
2024-01-15T13:01:07.388Z,12.70
2024-01-15T13:03:29.861Z,9.90
2024-01-15T13:05:53.813Z,10.13
2024-01-15T13:08:16.358Z,10.87
2024-01-15T13:10:38.863Z,10.20
2024-01-15T13:13:01.225Z,13.13
2024-01-15T13:15:23.702Z,10.07
2024-01-15T13:17:46.380Z,11.47
2024-01-15T13:20:09.904Z,12.00
2024-01-15T13:22:33.930Z,10.27
2024-01-15T13:24:57.628Z,7.80
2024-01-15T13:27:20.142Z,10.70
2024-01-15T13:29:42.443Z,8.70
2024-01-15T13:32:06.051Z,8.23
2024-01-15T13:34:28.513Z,6.80
2024-01-15T13:36:51.474Z,7.53
2024-01-15T13:39:14.506Z,8.67
2024-01-15T13:41:38.022Z,7.00
2024-01-15T13:44:00.801Z,5.47
2024-01-15T13:46:25.058Z,9.63
2024-01-15T13:48:47.712Z,5.67
2024-01-15T13:51:10.187Z,7.53
2024-01-15T13:53:32.475Z,6.60
2024-01-15T13:55:54.835Z,10.03
2024-01-15T13:58:18.862Z,6.53
2024-01-15T14:00:41.826Z,6.60
2024-01-15T14:03:09.880Z,6.40
2024-01-15T14:05:32.348Z,6.83
2024-01-15T14:07:54.662Z,6.37
2024-01-15T14:10:17.340Z,9.03
2024-01-15T14:12:40.778Z,7.43
2024-01-15T14:15:03.413Z,4.40
2024-01-15T14:17:25.743Z,4.50
2024-01-15T14:19:48.268Z,6.07
2024-01-15T14:22:16.402Z,4.10
2024-01-15T14:24:38.915Z,6.53
2024-01-15T14:27:01.336Z,5.43
2024-01-15T14:29:26.449Z,4.30
2024-01-15T14:31:48.872Z,7.03
2024-01-15T14:34:12.739Z,3.90
2024-01-15T14:36:35.325Z,7.83
2024-01-15T14:38:57.672Z,5.40
2024-01-15T14:41:20.099Z,5.87
2024-01-15T14:43:42.438Z,4.80
2024-01-15T14:46:04.952Z,6.47
2024-01-15T14:48:27.790Z,5.47
2024-01-15T14:50:51.932Z,5.30
2024-01-15T14:53:14.210Z,6.20
2024-01-15T14:55:36.592Z,5.97
2024-01-15T14:57:58.985Z,6.93
2024-01-15T15:00:21.558Z,5.80
2024-01-15T15:02:44.316Z,4.33
2024-01-15T15:05:07.332Z,5.40
2024-01-15T15:07:29.864Z,4.40
2024-01-15T15:09:52.634Z,7.63
2024-01-15T15:12:16.002Z,4.80
2024-01-15T15:14:45.710Z,4.73
2024-01-15T15:17:14.291Z,4.33
2024-01-15T15:19:36.868Z,5.53
2024-01-15T15:21:59.406Z,4.23
2024-01-15T15:24:21.860Z,5.60
2024-01-15T15:26:44.589Z,5.90
2024-01-15T15:29:06.997Z,4.60
2024-01-15T15:31:29.414Z,5.63
2024-01-15T15:33:51.858Z,4.47
2024-01-15T15:36:14.286Z,7.97
2024-01-15T15:38:36.700Z,4.40
2024-01-15T15:41:00.711Z,6.67
2024-01-15T15:43:23.174Z,5.83
2024-01-15T15:45:45.528Z,4.70
2024-01-15T15:48:08.104Z,4.67
2024-01-15T15:50:33.781Z,4.50
2024-01-15T15:52:57.439Z,5.03
2024-01-15T15:55:19.810Z,5.40
2024-01-15T15:57:42.300Z,7.00
2024-01-15T16:00:06.669Z,6.00
2024-01-15T16:02:37.586Z,5.83
2024-01-15T16:04:59.896Z,4.90
2024-01-15T16:07:22.275Z,5.17
2024-01-15T16:09:44.645Z,5.60
2024-01-15T16:12:07.418Z,5.30
2024-01-15T16:14:29.744Z,4.53
2024-01-15T16:23:13.208Z,4.67
2024-01-15T16:23:26.310Z,5.17
2024-01-15T16:23:41.309Z,5.13
2024-01-15T16:25:04.534Z,6.00
2024-01-15T16:27:27.965Z,5.53
2024-01-15T16:29:50.349Z,9.17
2024-01-15T16:32:13.071Z,4.90
2024-01-15T16:34:35.503Z,4.90
2024-01-15T16:36:58.183Z,5.63
2024-01-15T16:39:20.714Z,5.10
2024-01-15T16:41:43.322Z,4.60
2024-01-15T16:44:05.998Z,5.23
2024-01-15T16:46:29.367Z,5.07
2024-01-15T16:48:52.076Z,8.63
2024-01-15T16:51:14.780Z,5.77
2024-01-15T16:53:37.417Z,7.87
2024-01-15T16:55:59.968Z,7.37
2024-01-15T16:58:22.981Z,6.00
2024-01-15T17:00:45.456Z,4.37
2024-01-15T17:03:08.159Z,5.83
2024-01-15T17:05:30.574Z,6.10
2024-01-15T17:07:52.910Z,5.13
2024-01-15T17:10:16.263Z,6.60
2024-01-15T17:12:41.153Z,5.13
2024-01-15T17:15:03.829Z,5.47
2024-01-15T17:17:26.391Z,5.23
2024-01-15T17:19:48.967Z,7.63
2024-01-15T17:22:11.625Z,5.77
2024-01-15T17:24:33.993Z,6.40
2024-01-15T17:26:56.281Z,6.30
2024-01-15T17:29:18.701Z,5.43
2024-01-15T17:31:41.135Z,4.90
2024-01-15T17:34:03.680Z,5.73
2024-01-15T17:36:26.661Z,5.80
2024-01-15T17:38:49.560Z,5.53
2024-01-15T17:41:13.816Z,4.50
2024-01-15T17:43:37.888Z,9.60
2024-01-15T17:46:02.017Z,6.23
2024-01-15T17:48:24.571Z,5.17
2024-01-15T17:50:47.618Z,4.93
2024-01-15T17:53:11.900Z,6.67
2024-01-15T17:55:34.266Z,5.13
2024-01-15T17:57:57.331Z,5.03
2024-01-15T18:00:20.213Z,5.70
2024-01-15T18:02:42.674Z,6.97
2024-01-15T18:05:05.442Z,7.17
2024-01-15T18:07:27.867Z,4.87
2024-01-15T18:09:50.385Z,6.23
2024-01-15T18:12:12.721Z,6.27
2024-01-15T18:14:36.004Z,5.67
2024-01-15T18:16:58.465Z,7.50
2024-01-15T18:19:21.037Z,7.60
2024-01-15T18:21:43.385Z,5.60
2024-01-15T18:24:05.858Z,7.60
2024-01-15T18:26:28.219Z,4.73
2024-01-15T18:28:50.647Z,4.70
2024-01-15T18:31:13.448Z,6.50
2024-01-15T18:33:39.236Z,6.37
2024-01-15T18:36:03.530Z,4.90
2024-01-15T18:38:25.891Z,8.57
2024-01-15T18:40:48.262Z,6.97
2024-01-15T18:43:10.885Z,5.73
2024-01-15T18:45:33.149Z,5.33
2024-01-15T18:47:55.667Z,7.97
2024-01-15T18:50:18.113Z,7.70
2024-01-15T18:52:41.039Z,10.30
2024-01-15T18:55:04.062Z,5.73
2024-01-15T18:57:29.345Z,5.63
2024-01-15T18:59:52.420Z,9.73
2024-01-15T19:02:15.431Z,7.57
2024-01-15T19:04:37.734Z,5.13
2024-01-15T19:07:00.033Z,5.63
2024-01-15T19:09:22.308Z,7.93
2024-01-15T19:11:44.638Z,7.10
2024-01-15T19:14:07.301Z,7.67
2024-01-15T19:16:29.766Z,7.40
2024-01-15T19:18:53.391Z,8.43
2024-01-15T19:21:16.247Z,10.60
2024-01-15T19:23:38.749Z,6.63
2024-01-15T19:26:01.649Z,7.93
2024-01-15T19:28:24.478Z,6.57
2024-01-15T19:30:50.591Z,6.97
2024-01-15T19:33:13.262Z,6.80
2024-01-15T19:35:36.714Z,5.67
2024-01-15T19:37:59.310Z,10.67
2024-01-15T19:40:21.974Z,9.10
2024-01-15T19:42:44.309Z,11.63
2024-01-15T19:45:07.316Z,8.43
2024-01-15T19:47:29.868Z,8.53
2024-01-15T19:49:53.338Z,11.83
2024-01-15T19:52:16.245Z,6.83
2024-01-15T19:54:39.005Z,7.30
2024-01-15T19:57:07.066Z,11.03
2024-01-15T19:59:36.150Z,9.97
2024-01-15T20:01:59.899Z,7.63
2024-01-15T20:04:22.193Z,6.47
2024-01-15T20:06:44.555Z,7.80
2024-01-15T20:09:09.679Z,7.83
2024-01-15T20:11:32.289Z,9.23
2024-01-15T20:13:54.795Z,12.70
2024-01-15T20:16:17.052Z,8.33
2024-01-15T20:18:39.663Z,5.57
2024-01-15T20:21:03.408Z,6.43
2024-01-15T20:23:25.749Z,5.13
2024-01-15T20:25:48.099Z,11.60
2024-01-15T20:28:11.437Z,11.63
2024-01-15T20:30:33.881Z,6.47
2024-01-15T20:32:57.237Z,7.77
2024-01-15T20:35:22.257Z,8.87
2024-01-15T20:37:48.429Z,8.77
2024-01-15T20:40:11.605Z,7.70
2024-01-15T20:42:33.885Z,8.77
2024-01-15T20:44:56.264Z,8.47
2024-01-15T20:47:18.643Z,5.80
2024-01-15T20:49:40.949Z,8.70
2024-01-15T20:52:04.572Z,6.13
2024-01-15T20:54:26.838Z,6.37
2024-01-15T20:56:49.314Z,8.63
2024-01-15T20:59:12.009Z,6.27
2024-01-15T21:01:34.366Z,7.33
2024-01-15T21:03:56.845Z,8.67
2024-01-15T21:06:19.274Z,5.53
2024-01-15T21:08:47.056Z,8.13
2024-01-15T21:11:09.418Z,8.53
2024-01-15T21:13:31.809Z,6.83
2024-01-15T21:15:54.427Z,9.23
2024-01-15T21:18:18.497Z,10.60
2024-01-15T21:20:41.298Z,8.73
2024-01-15T21:23:04.081Z,10.00
2024-01-15T21:25:26.390Z,9.20
2024-01-15T21:27:48.966Z,6.37
2024-01-15T21:30:12.306Z,7.47
2024-01-15T21:32:34.790Z,9.80
2024-01-15T21:34:57.121Z,7.87
2024-01-15T21:37:19.465Z,9.77
2024-01-15T21:39:43.991Z,9.23
2024-01-15T21:42:06.361Z,9.57
2024-01-15T21:44:28.719Z,6.80
2024-01-15T21:46:51.483Z,9.73
2024-01-15T21:49:13.818Z,8.10
2024-01-15T21:51:36.594Z,8.00
2024-01-15T21:53:59.506Z,7.70
2024-01-15T21:56:22.004Z,8.20
2024-01-15T21:58:44.302Z,10.23
2024-01-15T22:01:09.489Z,7.67
2024-01-15T22:03:31.931Z,8.63
2024-01-15T22:05:56.273Z,10.83
2024-01-15T22:08:19.110Z,10.63
2024-01-15T22:10:41.811Z,6.77
2024-01-15T22:13:04.089Z,17.80
2024-01-15T22:15:27.492Z,7.77
2024-01-15T22:17:49.941Z,10.67
2024-01-15T22:20:13.346Z,7.17
2024-01-15T22:22:36.113Z,10.57
2024-01-15T22:24:58.366Z,11.07
2024-01-15T22:27:20.683Z,11.33
2024-01-15T22:29:44.169Z,10.23
2024-01-15T22:32:06.592Z,8.93
2024-01-15T22:34:29.234Z,9.97
2024-01-15T22:36:51.688Z,7.93
2024-01-15T22:39:15.017Z,9.13
2024-01-15T22:41:37.396Z,8.17
2024-01-15T22:43:59.804Z,7.43
2024-01-15T22:46:22.155Z,10.13
2024-01-15T22:48:44.979Z,10.60
2024-01-15T22:51:08.134Z,12.17
2024-01-15T22:53:30.563Z,9.77
2024-01-15T22:55:56.239Z,9.27
2024-01-15T22:58:18.573Z,10.20
2024-01-15T23:00:45.425Z,9.30
2024-01-15T23:03:07.984Z,10.57
2024-01-15T23:05:31.056Z,12.70
2024-01-15T23:07:53.439Z,8.27
2024-01-15T23:10:15.813Z,9.87
2024-01-15T23:12:38.994Z,9.10
2024-01-15T23:15:01.334Z,9.03
2024-01-15T23:17:23.896Z,7.57
2024-01-15T23:19:46.277Z,8.83
2024-01-15T23:22:08.571Z,10.67
2024-01-15T23:24:31.309Z,8.23
2024-01-15T23:26:54.051Z,10.87
2024-01-15T23:29:18.517Z,13.10
2024-01-15T23:31:41.734Z,8.73
2024-01-15T23:34:04.016Z,11.90
2024-01-15T23:36:27.703Z,9.67
2024-01-15T23:38:50.564Z,8.93
2024-01-15T23:41:19.793Z,7.67
2024-01-15T23:43:42.447Z,11.23
2024-01-15T23:46:13.998Z,10.13
2024-01-15T23:48:38.008Z,8.20
2024-01-15T23:51:04.050Z,10.50
2024-01-15T23:53:26.461Z,7.80
2024-01-15T23:55:48.915Z,9.30
2024-01-15T23:58:11.495Z,11.90
